createdAt,value
2019-03-09T00:01:25.608Z,4.30
2019-03-09T00:06:22.972Z,4.70
2019-03-09T00:08:53.526Z,4.70
2019-03-09T00:13:51.017Z,4.70
2019-03-09T00:16:19.685Z,4.70
2019-03-09T00:21:20.695Z,4.80
2019-03-09T00:24:04.521Z,4.70
2019-03-09T00:29:31.895Z,4.60
2019-03-09T00:32:06.585Z,4.70
2019-03-09T00:34:35.284Z,4.60
2019-03-09T00:37:03.967Z,4.60
2019-03-09T00:39:32.654Z,4.60
2019-03-09T00:42:01.328Z,4.60
2019-03-09T00:44:30.030Z,4.70
2019-03-09T00:49:27.161Z,4.70
2019-03-09T00:54:27.757Z,4.80
2019-03-09T00:56:56.915Z,4.60
2019-03-09T01:04:22.956Z,4.60
2019-03-09T01:06:51.737Z,4.50
2019-03-09T01:11:49.257Z,4.60
2019-03-09T01:14:17.949Z,4.50
2019-03-09T01:16:46.638Z,4.40
2019-03-09T01:19:15.562Z,4.40
2019-03-09T01:21:44.569Z,4.30
2019-03-09T01:24:13.631Z,4.30
2019-03-09T01:26:42.414Z,4.30
2019-03-09T01:29:11.150Z,4.20
2019-03-09T01:34:08.369Z,4.30
2019-03-09T01:36:36.992Z,4.30
2019-03-09T01:39:06.236Z,4.30
2019-03-09T01:41:34.892Z,4.40
2019-03-09T01:44:03.617Z,4.40
2019-03-09T01:46:32.274Z,4.50
2019-03-09T01:49:01.248Z,4.60
2019-03-09T01:56:26.583Z,4.90
2019-03-09T01:58:55.234Z,4.80
2019-03-09T02:01:24.461Z,4.80
2019-03-09T02:03:53.101Z,4.80
2019-03-09T02:06:21.773Z,4.80
2019-03-09T02:08:50.453Z,4.90
2019-03-09T02:11:19.102Z,4.90
2019-03-09T02:16:16.163Z,4.90
2019-03-09T02:18:44.808Z,5.00
2019-03-09T02:21:13.477Z,5.00
2019-03-09T02:23:42.450Z,4.90
2019-03-09T02:26:11.109Z,5.00
2019-03-09T02:28:39.763Z,5.00
2019-03-09T02:31:08.430Z,5.10
2019-03-09T02:33:37.097Z,5.00
2019-03-09T02:38:39.197Z,5.20
2019-03-09T02:41:07.896Z,5.30
2019-03-09T02:43:36.647Z,5.30
2019-03-09T02:46:05.280Z,5.40
2019-03-09T02:48:33.944Z,5.40
2019-03-09T02:51:02.920Z,5.40
2019-03-09T02:53:31.614Z,5.40
2019-03-09T02:58:28.769Z,5.40
2019-03-09T03:01:23.383Z,5.40
2019-03-09T03:03:52.128Z,5.40
2019-03-09T03:06:20.789Z,5.50
2019-03-09T03:08:49.644Z,5.60
2019-03-09T03:11:18.327Z,5.60
2019-03-09T03:13:47.024Z,5.60
2019-03-09T03:16:15.728Z,5.60
2019-03-09T03:18:44.478Z,5.70
2019-03-09T03:23:41.930Z,5.70
2019-03-09T03:26:10.641Z,5.80
2019-03-09T03:28:39.326Z,5.80
2019-03-09T03:31:07.981Z,5.80
2019-03-09T03:33:36.626Z,5.90
2019-03-09T03:36:05.282Z,6.00
2019-03-09T03:38:34.069Z,6.00
2019-03-09T03:41:02.802Z,6.20
2019-03-09T03:45:59.865Z,6.20
2019-03-09T03:48:28.974Z,6.20
2019-03-09T03:50:57.630Z,6.20
2019-03-09T03:53:26.283Z,6.20
2019-03-09T03:55:54.990Z,6.10
2019-03-09T03:58:23.767Z,6.10
2019-03-09T04:00:52.444Z,6.00
2019-03-09T04:05:49.536Z,5.90
2019-03-09T04:08:18.190Z,5.90
2019-03-09T04:10:46.881Z,5.80
2019-03-09T04:13:15.650Z,5.80
2019-03-09T04:15:44.342Z,5.80
2019-03-09T04:18:13.311Z,5.80
2019-03-09T04:20:41.962Z,5.80
2019-03-09T04:23:10.606Z,5.90
2019-03-09T04:28:08.089Z,5.90
2019-03-09T04:30:36.804Z,6.00
2019-03-09T04:33:05.461Z,6.00
2019-03-09T04:35:34.129Z,6.10
2019-03-09T04:38:02.767Z,6.20
2019-03-09T04:40:31.517Z,6.10
2019-03-09T04:43:00.205Z,6.30
2019-03-09T04:45:28.999Z,6.10
2019-03-09T04:50:26.373Z,6.30
2019-03-09T04:52:55.337Z,6.30
2019-03-09T04:55:23.996Z,6.30
2019-03-09T04:57:52.996Z,6.30
2019-03-09T05:00:22.403Z,6.30
2019-03-09T05:02:51.055Z,6.40
2019-03-09T05:05:20.075Z,6.40
2019-03-09T05:07:55.100Z,6.40
2019-03-09T05:13:03.629Z,6.30
2019-03-09T05:15:32.544Z,6.40
2019-03-09T05:18:01.287Z,6.40
2019-03-09T05:20:30.021Z,6.40
2019-03-09T05:22:58.693Z,6.40
2019-03-09T05:27:55.702Z,6.40
2019-03-09T05:30:49.951Z,6.40
2019-03-09T05:33:18.941Z,6.50
2019-03-09T05:35:47.663Z,6.50
2019-03-09T05:38:16.348Z,6.50
2019-03-09T05:40:45.001Z,6.50
2019-03-09T05:43:13.698Z,6.50
2019-03-09T05:45:42.334Z,6.50
2019-03-09T05:48:10.979Z,6.40
2019-03-09T05:53:16.488Z,6.40
2019-03-09T05:55:45.116Z,6.50
2019-03-09T05:58:13.782Z,6.50
2019-03-09T06:00:43.099Z,6.60
2019-03-09T06:03:11.823Z,6.60
2019-03-09T06:06:06.869Z,6.60
2019-03-09T06:08:35.496Z,6.60
2019-03-09T06:11:04.173Z,6.70
2019-03-09T06:13:32.876Z,6.80
2019-03-09T06:16:01.516Z,7.00
2019-03-09T06:20:58.465Z,7.00
2019-03-09T06:23:27.272Z,7.00
2019-03-09T06:25:56.013Z,7.20
2019-03-09T06:28:24.673Z,7.20
2019-03-09T06:30:53.345Z,7.30
2019-03-09T06:33:35.239Z,7.40
2019-03-09T06:36:10.008Z,7.30
2019-03-09T06:38:54.435Z,7.30
2019-03-09T06:41:28.486Z,7.40
2019-03-09T06:43:57.311Z,7.40
2019-03-09T06:46:26.026Z,7.50
2019-03-09T06:48:55.093Z,7.50
2019-03-09T06:51:24.217Z,7.40
2019-03-09T06:56:21.201Z,7.50
2019-03-09T06:58:49.868Z,7.50
2019-03-09T07:01:19.889Z,7.60
2019-03-09T07:03:48.556Z,7.60
2019-03-09T07:06:17.220Z,7.60
2019-03-09T07:08:45.869Z,7.70
2019-03-09T07:11:14.522Z,7.60
2019-03-09T07:13:52.400Z,7.70
2019-03-09T07:18:43.180Z,7.80
2019-03-09T07:21:11.956Z,7.90
2019-03-09T07:23:40.713Z,7.90
2019-03-09T07:26:09.381Z,7.90
2019-03-09T07:28:38.030Z,8.00
2019-03-09T07:31:06.940Z,8.00
2019-03-09T07:33:35.648Z,8.10
2019-03-09T07:36:05.115Z,8.20
2019-03-09T07:41:02.138Z,8.30
2019-03-09T07:43:30.811Z,8.40
2019-03-09T07:45:59.864Z,8.50
2019-03-09T07:48:28.566Z,8.60
2019-03-09T07:50:57.222Z,8.70
2019-03-09T07:53:25.962Z,8.80
2019-03-09T07:55:54.844Z,8.90
2019-03-09T07:58:23.526Z,8.90
2019-03-09T08:03:20.501Z,9.00
2019-03-09T08:05:49.193Z,9.10
2019-03-09T08:08:17.874Z,9.20
2019-03-09T08:10:46.670Z,9.30
2019-03-09T08:13:15.440Z,9.30
2019-03-09T08:15:44.123Z,9.30
2019-03-09T08:18:12.789Z,9.40
2019-03-09T08:20:41.441Z,9.50
2019-03-09T08:25:38.926Z,9.50
2019-03-09T08:28:08.239Z,9.40
2019-03-09T08:30:37.229Z,9.50
2019-03-09T08:33:06.196Z,9.50
2019-03-09T08:35:34.838Z,9.70
2019-03-09T08:38:03.612Z,9.80
2019-03-09T08:40:32.419Z,9.90
2019-03-09T08:45:29.593Z,10.00
2019-03-09T08:47:58.237Z,10.30
2019-03-09T08:50:26.913Z,10.60
2019-03-09T08:52:55.560Z,10.50
2019-03-09T08:55:24.262Z,10.60
2019-03-09T08:57:53.049Z,10.40
2019-03-09T09:00:26.690Z,10.90
2019-03-09T09:02:55.656Z,11.20
2019-03-09T09:07:52.713Z,11.20
2019-03-09T09:10:21.664Z,11.30
2019-03-09T09:12:50.462Z,11.40
2019-03-09T09:15:19.333Z,11.50
2019-03-09T09:17:48.104Z,11.70
2019-03-09T09:20:17.916Z,11.70
2019-03-09T09:22:46.830Z,11.30
2019-03-09T09:25:15.495Z,11.40
2019-03-09T09:30:15.504Z,11.30
2019-03-09T09:32:44.214Z,11.80
2019-03-09T09:35:12.973Z,11.80
2019-03-09T09:37:42.126Z,12.20
2019-03-09T09:40:12.305Z,12.00
2019-03-09T09:42:41.072Z,12.00
2019-03-09T09:45:10.647Z,12.40
2019-03-09T09:47:39.395Z,12.60
2019-03-09T09:52:36.904Z,12.20
2019-03-09T09:55:07.373Z,12.10
2019-03-09T09:57:36.160Z,12.20
2019-03-09T10:00:06.386Z,12.50
2019-03-09T10:02:35.138Z,12.60
2019-03-09T10:05:03.817Z,12.60
2019-03-09T10:07:32.707Z,12.80
2019-03-09T10:10:01.349Z,13.20
2019-03-09T10:14:58.381Z,13.00
2019-03-09T10:17:27.073Z,13.20
2019-03-09T10:19:55.735Z,13.10
2019-03-09T10:22:24.365Z,13.30
2019-03-09T10:24:53.008Z,13.30
2019-03-09T10:27:21.675Z,13.30
2019-03-09T10:29:50.440Z,13.30
2019-03-09T10:32:19.153Z,13.30
2019-03-09T10:37:16.313Z,13.50
2019-03-09T10:39:44.982Z,13.40
2019-03-09T10:42:13.624Z,13.50
2019-03-09T10:44:42.264Z,13.60
2019-03-09T10:47:11.063Z,13.50
2019-03-09T10:49:39.700Z,13.50
2019-03-09T10:52:08.349Z,13.50
2019-03-09T10:54:37.007Z,13.60
2019-03-09T10:59:33.950Z,13.80
2019-03-09T11:02:02.596Z,13.70
2019-03-09T11:04:31.465Z,13.80
2019-03-09T11:07:00.136Z,14.10
2019-03-09T11:09:28.789Z,14.10
2019-03-09T11:11:57.506Z,14.80
2019-03-09T11:14:26.215Z,14.20
2019-03-09T11:19:23.221Z,14.20
2019-03-09T11:21:51.872Z,14.30
2019-03-09T11:24:20.918Z,14.60
2019-03-09T11:26:49.718Z,14.70
2019-03-09T11:29:18.414Z,14.70
2019-03-09T11:31:47.066Z,14.80
2019-03-09T11:34:15.733Z,15.10
2019-03-09T11:36:44.490Z,15.50
2019-03-09T11:41:41.734Z,14.50
2019-03-09T11:44:10.440Z,15.50
2019-03-09T11:46:39.126Z,15.60
2019-03-09T11:49:07.800Z,15.50
2019-03-09T11:51:36.453Z,15.60
2019-03-09T11:54:05.196Z,15.70
2019-03-09T11:56:33.848Z,16.00
2019-03-09T11:59:02.537Z,15.90
2019-03-09T12:03:59.530Z,15.90
2019-03-09T12:06:28.282Z,15.80
2019-03-09T12:08:56.951Z,15.60
2019-03-09T12:11:25.596Z,15.50
2019-03-09T12:13:54.365Z,15.50
2019-03-09T12:16:23.312Z,15.40
2019-03-09T12:18:51.977Z,15.70
2019-03-09T12:23:49.191Z,15.60
2019-03-09T12:26:17.845Z,15.80
2019-03-09T12:28:46.501Z,15.50
2019-03-09T12:31:15.253Z,15.30
2019-03-09T12:33:44.324Z,14.90
2019-03-09T12:36:12.976Z,15.00
2019-03-09T12:38:41.729Z,15.00
2019-03-09T12:41:10.779Z,14.90
2019-03-09T12:46:07.887Z,15.00
2019-03-09T12:48:36.529Z,15.30
2019-03-09T12:53:33.474Z,15.50
2019-03-09T12:56:02.223Z,15.70
2019-03-09T12:58:31.666Z,15.50
2019-03-09T13:01:00.392Z,15.30
2019-03-09T13:03:29.097Z,15.20
2019-03-09T13:08:26.029Z,15.30
2019-03-09T13:10:56.129Z,15.50
2019-03-09T13:13:24.966Z,15.60
2019-03-09T13:15:53.617Z,15.50
2019-03-09T13:18:22.269Z,15.40
2019-03-09T13:20:50.974Z,15.40
2019-03-09T13:23:19.618Z,15.30
2019-03-09T13:25:48.272Z,15.20
2019-03-09T13:30:45.219Z,15.10
2019-03-09T13:33:13.936Z,15.50
2019-03-09T13:35:42.625Z,15.60
2019-03-09T13:38:11.287Z,15.60
2019-03-09T13:40:40.029Z,15.70
2019-03-09T13:43:08.666Z,15.90
2019-03-09T13:45:37.368Z,15.50
2019-03-09T13:50:34.427Z,15.00
2019-03-09T13:53:03.161Z,15.00
2019-03-09T13:55:31.826Z,15.00
2019-03-09T13:58:00.590Z,15.30
2019-03-09T14:00:39.739Z,15.50
2019-03-09T14:02:59.895Z,15.70
2019-03-09T14:05:28.563Z,15.60
2019-03-09T14:07:57.258Z,15.50
2019-03-09T14:12:54.276Z,15.50
2019-03-09T14:15:23.409Z,15.50
2019-03-09T14:17:52.057Z,15.30
2019-03-09T14:20:20.718Z,15.10
2019-03-09T14:22:49.389Z,15.10
2019-03-09T14:25:18.081Z,15.00
2019-03-09T14:27:46.745Z,14.80
2019-03-09T14:30:15.405Z,14.80
2019-03-09T14:35:13.225Z,14.70
2019-03-09T14:37:41.945Z,14.40
2019-03-09T14:40:10.969Z,14.10
2019-03-09T14:42:39.615Z,14.10
2019-03-09T14:45:13.733Z,14.20
2019-03-09T14:47:42.473Z,14.10
2019-03-09T14:50:11.255Z,14.10
2019-03-09T14:52:40.005Z,14.00
2019-03-09T14:57:36.969Z,13.70
2019-03-09T15:00:07.588Z,13.70
2019-03-09T15:02:36.325Z,13.90
2019-03-09T15:05:05.283Z,13.90
2019-03-09T15:07:33.933Z,13.90
2019-03-09T15:10:02.649Z,13.80
2019-03-09T15:12:31.391Z,13.40
2019-03-09T15:15:00.029Z,12.90
2019-03-09T15:19:57.200Z,13.00
2019-03-09T15:22:25.936Z,12.80
2019-03-09T15:24:54.615Z,12.70
2019-03-09T15:27:23.279Z,12.70
2019-03-09T15:29:51.923Z,12.80
2019-03-09T15:32:20.627Z,12.90
2019-03-09T15:34:49.493Z,12.70
2019-03-09T15:37:18.154Z,11.90
2019-03-09T15:42:15.328Z,12.20
2019-03-09T15:44:43.980Z,12.20
2019-03-09T15:47:12.653Z,11.80
2019-03-09T15:49:41.828Z,11.80
2019-03-09T15:52:10.665Z,12.10
2019-03-09T15:54:39.394Z,12.10
2019-03-09T15:57:08.059Z,12.10
2019-03-09T15:59:36.734Z,11.60
2019-03-09T16:04:36.776Z,11.80
2019-03-09T16:07:06.773Z,11.70
2019-03-09T16:09:35.660Z,11.70
2019-03-09T16:12:04.351Z,11.40
2019-03-09T16:14:33.043Z,11.40
2019-03-09T16:17:05.955Z,11.40
2019-03-09T16:19:34.746Z,11.40
2019-03-09T16:22:03.386Z,11.10
2019-03-09T16:27:00.648Z,10.70
2019-03-09T16:29:29.339Z,10.70
2019-03-09T16:31:58.105Z,10.20
2019-03-09T16:34:26.768Z,10.10
2019-03-09T16:36:55.401Z,9.90
2019-03-09T16:39:24.049Z,9.80
2019-03-09T16:41:52.777Z,9.80
2019-03-09T16:44:21.464Z,9.90
2019-03-09T16:49:18.529Z,9.80
2019-03-09T16:51:47.479Z,9.80
2019-03-09T16:54:16.489Z,9.90
2019-03-09T16:56:45.365Z,9.90
2019-03-09T16:59:14.094Z,10.00
2019-03-09T17:01:42.737Z,10.00
2019-03-09T17:04:11.376Z,10.00
2019-03-09T17:06:40.054Z,9.80
2019-03-09T17:11:37.131Z,9.80
2019-03-09T17:14:05.782Z,9.80
2019-03-09T17:16:35.746Z,9.70
2019-03-09T17:19:04.505Z,9.80
2019-03-09T17:21:33.166Z,9.90
2019-03-09T17:24:01.812Z,10.00
2019-03-09T17:26:30.561Z,10.00
2019-03-09T17:28:59.509Z,9.90
2019-03-09T17:31:28.167Z,9.90
2019-03-09T17:33:56.922Z,10.00
2019-03-09T17:36:25.578Z,10.00
2019-03-09T17:38:54.352Z,10.10
2019-03-09T17:41:23.028Z,10.10
2019-03-09T17:43:52.073Z,10.20
2019-03-09T17:46:20.760Z,10.20
2019-03-09T17:48:49.417Z,10.20
2019-03-09T17:53:46.398Z,10.10
2019-03-09T17:56:15.107Z,10.10
2019-03-09T17:58:43.761Z,10.00
2019-03-09T18:01:12.421Z,10.00
2019-03-09T18:03:41.155Z,10.10
2019-03-09T18:06:09.839Z,10.30
2019-03-09T18:08:38.869Z,10.10
2019-03-09T18:11:08.505Z,10.10
2019-03-09T18:16:05.444Z,10.20
2019-03-09T18:18:34.075Z,10.40
2019-03-09T18:21:02.774Z,10.40
2019-03-09T18:23:31.428Z,10.30
2019-03-09T18:26:00.086Z,10.40
2019-03-09T18:28:28.769Z,10.50
2019-03-09T18:30:57.499Z,10.70
2019-03-09T18:33:26.193Z,10.80
2019-03-09T18:38:23.195Z,10.90
2019-03-09T18:40:52.045Z,10.90
2019-03-09T18:43:20.747Z,10.90
2019-03-09T18:45:49.413Z,10.90
2019-03-09T18:48:18.484Z,11.00
2019-03-09T18:50:47.145Z,11.10
2019-03-09T18:53:15.856Z,11.10
2019-03-09T18:55:44.828Z,11.00
2019-03-09T19:00:41.833Z,11.10
2019-03-09T19:03:10.898Z,11.20
2019-03-09T19:05:39.675Z,11.20
2019-03-09T19:08:08.344Z,11.40
2019-03-09T19:10:37.264Z,11.40
2019-03-09T19:13:05.977Z,11.30
2019-03-09T19:15:34.882Z,11.40
2019-03-09T19:23:01.609Z,11.40
2019-03-09T19:25:30.258Z,11.40
2019-03-09T19:27:58.929Z,11.40
2019-03-09T19:30:27.572Z,11.50
2019-03-09T19:33:00.411Z,11.60
2019-03-09T19:35:26.984Z,11.60
2019-03-09T19:37:55.695Z,11.80
2019-03-09T19:42:52.734Z,11.90
2019-03-09T19:45:21.605Z,11.80
2019-03-09T19:47:50.361Z,11.80
2019-03-09T19:50:19.024Z,11.90
2019-03-09T19:52:47.766Z,11.80
2019-03-09T19:55:16.404Z,11.90
2019-03-09T19:57:45.055Z,11.90
2019-03-09T20:00:14.105Z,11.90
2019-03-09T20:05:11.145Z,11.70
2019-03-09T20:07:39.838Z,11.80
2019-03-09T20:10:09.773Z,11.90
2019-03-09T20:12:38.550Z,12.00
2019-03-09T20:15:08.364Z,12.10
2019-03-09T20:17:37.070Z,12.00
2019-03-09T20:20:06.154Z,12.20
2019-03-09T20:22:34.834Z,12.20
2019-03-09T20:27:31.901Z,12.20
2019-03-09T20:30:00.653Z,12.20
2019-03-09T20:32:29.349Z,12.10
2019-03-09T20:34:58.131Z,12.10
2019-03-09T20:37:26.839Z,12.10
2019-03-09T20:39:55.505Z,12.20
2019-03-09T20:42:24.255Z,12.30
2019-03-09T20:44:52.996Z,12.30
2019-03-09T20:49:51.042Z,12.30
2019-03-09T20:52:19.720Z,12.40
2019-03-09T20:54:48.390Z,12.40
2019-03-09T20:57:17.325Z,12.40
2019-03-09T20:59:45.962Z,12.40
2019-03-09T21:02:14.620Z,12.30
2019-03-09T21:04:43.254Z,12.20
2019-03-09T21:12:08.773Z,12.40
2019-03-09T21:14:37.600Z,12.30
2019-03-09T21:17:06.322Z,12.30
2019-03-09T21:19:34.988Z,12.30
2019-03-09T21:22:03.711Z,12.40
2019-03-09T21:24:32.562Z,12.40
2019-03-09T21:27:01.244Z,12.40
2019-03-09T21:31:58.374Z,12.30
2019-03-09T21:34:27.022Z,12.50
2019-03-09T21:36:55.983Z,12.50
2019-03-09T21:39:24.883Z,12.40
2019-03-09T21:41:53.539Z,12.40
2019-03-09T21:44:22.229Z,12.40
2019-03-09T21:46:50.898Z,12.60
2019-03-09T21:51:47.827Z,12.60
2019-03-09T21:54:16.476Z,12.60
2019-03-09T21:56:45.124Z,12.60
2019-03-09T21:59:13.868Z,12.60
2019-03-09T22:01:42.540Z,12.70
2019-03-09T22:04:11.616Z,12.80
2019-03-09T22:06:40.321Z,12.80
2019-03-09T22:09:09.098Z,12.80
2019-03-09T22:14:06.044Z,12.70
2019-03-09T22:16:34.706Z,12.90
2019-03-09T22:19:03.357Z,12.90
2019-03-09T22:21:32.022Z,12.90
2019-03-09T22:24:00.711Z,12.80
2019-03-09T22:26:29.401Z,12.80
2019-03-09T22:28:58.095Z,12.70
2019-03-09T22:31:26.990Z,12.60
2019-03-09T22:36:26.784Z,12.70
2019-03-09T22:38:55.762Z,12.70
2019-03-09T22:41:24.473Z,12.70
2019-03-09T22:43:53.239Z,12.80
2019-03-09T22:46:21.885Z,12.70
2019-03-09T22:48:50.645Z,12.60
2019-03-09T22:51:19.293Z,12.80
2019-03-09T22:53:47.942Z,12.80
2019-03-09T22:58:44.883Z,12.80
2019-03-09T23:01:13.825Z,12.90
2019-03-09T23:03:42.556Z,12.80
2019-03-09T23:06:11.221Z,12.80
2019-03-09T23:08:39.900Z,12.90
2019-03-09T23:11:08.596Z,12.90
2019-03-09T23:13:37.239Z,12.80
2019-03-09T23:16:05.893Z,12.70
2019-03-09T23:21:02.879Z,12.70
2019-03-09T23:23:31.795Z,12.80
2019-03-09T23:26:00.776Z,12.80
2019-03-09T23:28:43.853Z,12.70
2019-03-09T23:31:12.508Z,12.80
2019-03-09T23:33:41.233Z,12.80
2019-03-09T23:36:09.943Z,12.50
2019-03-09T23:38:38.603Z,12.30
2019-03-09T23:43:35.653Z,12.20
2019-03-09T23:46:04.324Z,12.40
2019-03-09T23:48:33.020Z,12.40
2019-03-09T23:51:01.706Z,12.20
2019-03-09T23:53:30.377Z,12.10
2019-03-09T23:55:59.090Z,12.10
2019-03-09T23:58:27.853Z,12.00
